AUR38J EGJB-EGJJ

Flight info

Callsign AUR38J
Flight time 0h 9m
Altitude 2000
Route JSY
Aircraft AT76/M-SDFGIRY/S

Departure

Time 2026-05-08 15:10
Airport Guernsey Airport (EGJB)

Arrival

Time 2026-05-08 15:20
Airport Jersey Airport (EGJJ)
Time Latitude Longitude Altitude Speed Heading
2026-05-08 14:46 49.43284 -2.59744 324 ft 0 kts 178°
2026-05-08 15:02 49.43303 -2.59746 322 ft 4 kts 178°
2026-05-08 15:02 49.43330 -2.59747 324 ft 4 kts 178°
2026-05-08 15:02 49.43351 -2.59748 324 ft 0 kts 176°
2026-05-08 15:05 49.43350 -2.59748 324 ft 1 kts 176°
2026-05-08 15:06 49.43348 -2.59754 323 ft 1 kts 230°
2026-05-08 15:06 49.43346 -2.59816 323 ft 11 kts 268°
2026-05-08 15:06 49.43341 -2.59978 312 ft 16 kts 268°
2026-05-08 15:06 49.43337 -2.60152 299 ft 15 kts 268°
2026-05-08 15:07 49.43332 -2.60320 291 ft 18 kts 268°
2026-05-08 15:07 49.43327 -2.60514 289 ft 18 kts 267°
2026-05-08 15:07 49.43337 -2.60693 293 ft 16 kts 281°
2026-05-08 15:07 49.43354 -2.60843 303 ft 12 kts 279°
2026-05-08 15:08 49.43364 -2.60952 305 ft 9 kts 273°
2026-05-08 15:08 49.43364 -2.61014 309 ft 9 kts 267°
2026-05-08 15:08 49.43359 -2.61184 309 ft 14 kts 268°
2026-05-08 15:08 49.43395 -2.61314 312 ft 12 kts 312°
2026-05-08 15:09 49.43454 -2.61346 312 ft 7 kts 25°
2026-05-08 15:09 49.43466 -2.61303 312 ft 0 kts 86°
2026-05-08 15:09 49.43467 -2.61276 312 ft 18 kts 87°
2026-05-08 15:10 49.43483 -2.60697 305 ft 88 kts 87°
2026-05-08 15:10 49.43515 -2.59539 545 ft 114 kts 86°
2026-05-08 15:10 49.43538 -2.58268 1008 ft 130 kts 88°
2026-05-08 15:10 49.43575 -2.56838 1596 ft 131 kts 89°
2026-05-08 15:11 49.43610 -2.55475 2106 ft 135 kts 99°
2026-05-08 15:11 49.42968 -2.54229 2094 ft 175 kts 150°
2026-05-08 15:11 49.41727 -2.53522 2095 ft 199 kts 158°
2026-05-08 15:11 49.40370 -2.52863 2032 ft 209 kts 161°
2026-05-08 15:12 49.38946 -2.52261 2020 ft 215 kts 162°
2026-05-08 15:12 49.37492 -2.51643 2010 ft 219 kts 162°
2026-05-08 15:12 49.36020 -2.50982 2002 ft 221 kts 161°
2026-05-08 15:12 49.34544 -2.50296 1997 ft 223 kts 161°
2026-05-08 15:13 49.33054 -2.49601 1998 ft 224 kts 160°
2026-05-08 15:13 49.31563 -2.48898 1996 ft 225 kts 161°
2026-05-08 15:13 49.30062 -2.48196 1991 ft 226 kts 160°
2026-05-08 15:13 49.28560 -2.47487 1989 ft 225 kts 160°
2026-05-08 15:14 49.27088 -2.46795 1986 ft 217 kts 160°
2026-05-08 15:14 49.25669 -2.46121 1984 ft 210 kts 160°
2026-05-08 15:14 49.24331 -2.45494 1985 ft 193 kts 160°
2026-05-08 15:14 49.23092 -2.44933 1973 ft 178 kts 160°
2026-05-08 15:15 49.21944 -2.44420 1988 ft 166 kts 161°
2026-05-08 15:15 49.20873 -2.43934 1966 ft 158 kts 160°
2026-05-08 15:15 49.19816 -2.43411 1982 ft 160 kts 154°
2026-05-08 15:15 49.19024 -2.42267 1973 ft 161 kts 114°
2026-05-08 15:16 49.19005 -2.40566 1966 ft 163 kts 83°
2026-05-08 15:16 49.19182 -2.38848 1966 ft 164 kts 84°
2026-05-08 15:16 49.19347 -2.37114 1971 ft 166 kts 85°
2026-05-08 15:16 49.19484 -2.35359 1972 ft 167 kts 85°
2026-05-08 15:17 49.19623 -2.33593 1956 ft 168 kts 85°
2026-05-08 15:17 49.19763 -2.31866 1763 ft 157 kts 84°
2026-05-08 15:17 49.19902 -2.30283 1548 ft 144 kts 84°
2026-05-08 15:17 49.20023 -2.28870 1373 ft 126 kts 84°
2026-05-08 15:18 49.20129 -2.27608 1208 ft 113 kts 84°
2026-05-08 15:18 49.20216 -2.26449 1061 ft 108 kts 83°
2026-05-08 15:18 49.20300 -2.25348 911 ft 103 kts 80°
2026-05-08 15:18 49.20397 -2.24265 745 ft 101 kts 81°
2026-05-08 15:19 49.20493 -2.23211 609 ft 102 kts 81°
2026-05-08 15:19 49.20582 -2.22154 530 ft 100 kts 78°
2026-05-08 15:19 49.20671 -2.21116 384 ft 97 kts 79°
2026-05-08 15:19 49.20750 -2.20130 281 ft 86 kts 80°
2026-05-08 15:20 49.20810 -2.19404 283 ft 40 kts 84°
2026-05-08 15:20 49.20800 -2.19063 281 ft 25 kts 107°
2026-05-08 15:20 49.20751 -2.18874 281 ft 11 kts 119°
2026-05-08 15:20 49.20700 -2.18903 281 ft 12 kts 262°
2026-05-08 15:21 49.20688 -2.19053 280 ft 16 kts 262°
2026-05-08 15:21 49.20684 -2.19228 280 ft 17 kts 285°
2026-05-08 15:21 49.20710 -2.19406 281 ft 17 kts 271°
2026-05-08 15:21 49.20689 -2.19595 281 ft 18 kts 251°
2026-05-08 15:22 49.20620 -2.19703 280 ft 13 kts 239°
2026-05-08 15:22 49.20598 -2.19811 280 ft 8 kts 207°
2026-05-08 15:22 49.20555 -2.19807 280 ft 2 kts 173°
2026-05-08 15:22 49.20550 -2.19806 280 ft 0 kts 174°